createdAt,value
2022-11-19T00:00:50.151Z,5.35
2022-11-19T00:01:52.636Z,5.07
2022-11-19T00:02:55.209Z,5.07
2022-11-19T00:03:57.439Z,5.63
2022-11-19T00:04:59.807Z,5.47
2022-11-19T00:06:05.597Z,5.18
2022-11-19T00:07:08.118Z,4.93
2022-11-19T00:08:12.428Z,5.32
2022-11-19T00:09:14.562Z,5.28
2022-11-19T00:10:20.015Z,4.88
2022-11-19T00:11:46.385Z,5.53
2022-11-19T00:12:55.101Z,5.70
2022-11-19T00:13:57.420Z,5.30
2022-11-19T00:14:59.563Z,5.47
2022-11-19T00:16:10.270Z,5.55
2022-11-19T00:17:12.444Z,5.43
2022-11-19T00:18:14.614Z,4.93
2022-11-19T00:19:17.068Z,5.00
2022-11-19T00:20:19.392Z,5.82
2022-11-19T00:21:21.742Z,5.20
2022-11-19T00:22:23.897Z,5.30
2022-11-19T00:23:26.318Z,5.65
2022-11-19T00:24:30.340Z,5.85
2022-11-19T00:25:33.495Z,5.43
2022-11-19T00:26:36.013Z,5.22
2022-11-19T00:27:38.166Z,5.18
2022-11-19T00:28:41.900Z,4.75
2022-11-19T00:29:44.066Z,5.28
2022-11-19T00:30:48.609Z,5.38
2022-11-19T00:31:51.077Z,5.70
2022-11-19T00:32:56.167Z,5.78
2022-11-19T00:33:58.324Z,5.40
2022-11-19T00:35:00.698Z,5.38
2022-11-19T00:36:04.297Z,5.50
2022-11-19T00:37:06.468Z,5.32
2022-11-19T00:38:11.589Z,5.53
2022-11-19T00:39:14.212Z,5.53
2022-11-19T00:40:16.450Z,5.47
2022-11-19T00:41:18.789Z,5.47
2022-11-19T00:42:21.220Z,4.82
2022-11-19T00:43:42.285Z,5.28
2022-11-19T00:44:47.437Z,5.30
2022-11-19T00:45:50.284Z,5.10
2022-11-19T00:46:52.617Z,5.40
2022-11-19T00:47:54.761Z,5.10
2022-11-19T00:48:58.843Z,5.00
2022-11-19T00:50:01.024Z,5.30
2022-11-19T00:51:03.427Z,5.57
2022-11-19T00:52:05.896Z,5.30
2022-11-19T00:53:08.318Z,5.15
2022-11-19T00:54:10.685Z,5.35
2022-11-19T00:55:13.093Z,5.47
2022-11-19T00:56:20.227Z,5.40
2022-11-19T00:57:22.625Z,5.20
2022-11-19T00:58:24.808Z,4.93
2022-11-19T00:59:27.172Z,5.22
2022-11-19T01:00:31.685Z,4.85
2022-11-19T01:01:33.968Z,4.90
2022-11-19T01:02:36.266Z,4.97
2022-11-19T01:03:40.552Z,5.30
2022-11-19T01:04:42.777Z,4.63
2022-11-19T01:05:45.071Z,5.40
2022-11-19T01:06:47.358Z,5.35
2022-11-19T01:07:49.865Z,5.22
2022-11-19T01:08:53.248Z,5.47
2022-11-19T01:09:55.791Z,5.60
2022-11-19T01:11:11.402Z,4.97
2022-11-19T01:12:13.650Z,5.45
2022-11-19T01:13:34.749Z,5.80
2022-11-19T01:14:36.908Z,5.25
2022-11-19T01:15:40.388Z,6.18
2022-11-19T01:16:42.741Z,5.85
2022-11-19T01:17:45.100Z,5.40
2022-11-19T01:18:52.203Z,5.72
2022-11-19T01:19:55.716Z,5.95
2022-11-19T01:21:00.879Z,5.63
2022-11-19T01:22:03.236Z,5.85
2022-11-19T01:23:05.380Z,5.43
2022-11-19T01:24:08.107Z,6.55
2022-11-19T01:25:10.525Z,6.25
2022-11-19T01:26:13.721Z,5.80
2022-11-19T01:27:18.470Z,5.95
2022-11-19T01:28:20.879Z,5.18
2022-11-19T01:29:23.336Z,6.40
2022-11-19T01:30:25.526Z,6.28
2022-11-19T01:31:29.857Z,5.18
2022-11-19T01:32:32.911Z,5.60
2022-11-19T01:33:36.170Z,5.68
2022-11-19T01:34:41.686Z,5.05
2022-11-19T01:35:43.924Z,5.05
2022-11-19T01:36:46.085Z,5.25
2022-11-19T01:37:48.504Z,5.05
2022-11-19T01:38:51.852Z,5.35
2022-11-19T01:39:56.603Z,6.07
2022-11-19T01:40:59.387Z,5.38
2022-11-19T01:42:01.587Z,5.32
2022-11-19T01:43:03.760Z,5.90
2022-11-19T01:44:27.567Z,5.82
2022-11-19T01:45:38.825Z,4.68
2022-11-19T01:46:40.998Z,4.95
2022-11-19T01:47:43.234Z,4.88
2022-11-19T01:48:48.224Z,5.30
2022-11-19T01:49:53.462Z,5.40
2022-11-19T01:51:02.302Z,5.07
2022-11-19T01:52:04.723Z,5.03
2022-11-19T01:53:09.397Z,5.75
2022-11-19T01:54:26.527Z,6.03
2022-11-19T01:55:30.280Z,5.15
2022-11-19T01:56:32.525Z,5.30
2022-11-19T01:57:35.391Z,5.53
2022-11-19T01:58:44.128Z,5.18
2022-11-19T01:59:51.378Z,5.13
2022-11-19T02:00:53.966Z,5.30
2022-11-19T02:02:00.032Z,5.22
2022-11-19T02:03:02.206Z,5.35
2022-11-19T02:04:08.373Z,5.20
2022-11-19T02:05:10.545Z,5.03
2022-11-19T02:06:13.407Z,5.18
2022-11-19T02:07:16.241Z,4.70
2022-11-19T02:08:35.919Z,5.07
2022-11-19T02:09:39.125Z,5.00
2022-11-19T02:11:15.015Z,5.28
2022-11-19T02:12:35.396Z,5.03
2022-11-19T02:14:19.708Z,4.95
2022-11-19T02:15:57.457Z,4.53
2022-11-19T02:17:29.379Z,4.93
2022-11-19T02:18:54.365Z,4.85
2022-11-19T02:20:21.879Z,4.60
2022-11-19T02:21:38.699Z,5.00
2022-11-19T02:23:20.960Z,5.28
2022-11-19T02:24:51.685Z,5.25
2022-11-19T02:26:59.055Z,4.60
2022-11-19T02:28:11.892Z,4.75
2022-11-19T02:29:34.792Z,5.35
2022-11-19T02:30:41.659Z,5.15
2022-11-19T02:31:59.669Z,4.70
2022-11-19T02:33:24.607Z,5.97
2022-11-19T02:34:45.240Z,5.03
2022-11-19T02:36:06.302Z,4.75
2022-11-19T02:38:20.973Z,4.88
2022-11-19T02:39:31.494Z,5.05
2022-11-19T02:40:56.136Z,4.85
2022-11-19T02:42:17.729Z,5.18
2022-11-19T02:43:37.499Z,5.35
2022-11-19T02:44:58.844Z,4.25
2022-11-19T02:46:12.421Z,5.25
2022-11-19T02:47:21.473Z,5.68
2022-11-19T02:48:28.689Z,4.45
2022-11-19T02:49:35.512Z,5.00
2022-11-19T02:50:45.349Z,4.88
2022-11-19T02:51:49.421Z,4.30
2022-11-19T02:52:54.860Z,5.15
2022-11-19T02:53:58.176Z,5.45
2022-11-19T02:55:00.293Z,4.88
2022-11-19T02:56:13.209Z,5.07
2022-11-19T02:57:15.609Z,4.97
2022-11-19T02:58:41.160Z,4.95
2022-11-19T03:00:13.289Z,5.07
2022-11-19T03:01:34.237Z,5.72
2022-11-19T03:03:01.344Z,5.20
2022-11-19T03:04:22.984Z,4.78
2022-11-19T03:05:29.298Z,4.75
2022-11-19T03:06:32.809Z,4.82
2022-11-19T03:07:35.639Z,4.93
2022-11-19T03:08:38.568Z,5.63
2022-11-19T03:09:46.122Z,5.53
2022-11-19T03:11:22.608Z,5.13
2022-11-19T03:12:46.422Z,5.57
2022-11-19T03:14:22.121Z,4.88
2022-11-19T03:16:02.171Z,4.90
2022-11-19T03:17:13.471Z,5.10
2022-11-19T03:18:31.416Z,5.53
2022-11-19T03:19:58.506Z,5.65
2022-11-19T03:21:08.359Z,4.85
2022-11-19T03:22:18.568Z,5.15
2022-11-19T03:23:39.918Z,4.90
2022-11-19T03:24:47.079Z,5.40
2022-11-19T03:26:03.460Z,6.07
2022-11-19T03:27:14.393Z,5.43
2022-11-19T03:29:26.849Z,4.90
2022-11-19T03:30:30.639Z,4.93
2022-11-19T03:31:34.974Z,5.30
2022-11-19T03:32:44.417Z,5.53
2022-11-19T03:33:51.716Z,5.85
2022-11-19T03:35:01.091Z,5.20
2022-11-19T03:36:12.405Z,6.25
2022-11-19T03:37:19.107Z,4.78
2022-11-19T03:38:40.148Z,5.90
2022-11-19T03:39:43.805Z,4.90
2022-11-19T03:40:49.330Z,6.10
2022-11-19T03:41:54.149Z,5.68
2022-11-19T03:42:58.077Z,5.20
2022-11-19T03:44:18.454Z,5.47
2022-11-19T03:45:26.135Z,5.68
2022-11-19T03:46:32.637Z,5.80
2022-11-19T03:47:40.788Z,5.75
2022-11-19T03:48:48.302Z,5.95
2022-11-19T03:49:57.892Z,5.78
2022-11-19T03:51:07.953Z,5.72
2022-11-19T03:52:19.641Z,6.28
2022-11-19T03:53:22.777Z,6.53
2022-11-19T03:54:25.120Z,6.30
2022-11-19T03:55:34.542Z,6.60
2022-11-19T03:56:39.729Z,6.45
2022-11-19T03:57:42.489Z,6.10
2022-11-19T03:58:47.160Z,6.03
2022-11-19T03:59:49.437Z,6.03
2022-11-19T04:00:52.109Z,6.75
2022-11-19T04:01:57.123Z,6.68
2022-11-19T04:02:59.933Z,6.32
2022-11-19T04:04:21.047Z,5.75
2022-11-19T04:05:23.264Z,5.88
2022-11-19T04:06:25.409Z,6.13
2022-11-19T04:07:27.607Z,6.40
2022-11-19T04:08:30.077Z,6.55
2022-11-19T04:09:32.278Z,6.50
2022-11-19T04:10:34.413Z,7.22
2022-11-19T04:11:36.936Z,6.82
2022-11-19T04:12:39.292Z,6.03
2022-11-19T04:13:41.581Z,5.55
2022-11-19T04:14:43.957Z,5.80
2022-11-19T04:15:46.108Z,6.13
2022-11-19T04:16:48.270Z,7.35
2022-11-19T04:17:50.550Z,6.13
2022-11-19T04:18:52.892Z,6.07
2022-11-19T04:19:55.049Z,6.30
2022-11-19T04:20:57.409Z,6.25
2022-11-19T04:21:59.768Z,7.05
2022-11-19T04:23:01.958Z,7.00
2022-11-19T04:24:04.846Z,6.22
2022-11-19T04:25:07.384Z,7.30
2022-11-19T04:26:09.771Z,7.35
2022-11-19T04:27:11.975Z,7.15
2022-11-19T04:28:14.219Z,7.22
2022-11-19T04:29:16.869Z,7.85
2022-11-19T04:30:19.529Z,7.15
2022-11-19T04:31:21.880Z,7.47
2022-11-19T04:32:24.045Z,7.57
2022-11-19T04:33:26.567Z,6.93
2022-11-19T04:34:28.699Z,7.35
2022-11-19T04:35:30.830Z,7.68
2022-11-19T04:36:33.329Z,7.15
2022-11-19T04:37:35.631Z,6.65
2022-11-19T04:38:37.984Z,7.32
2022-11-19T04:39:40.167Z,8.52
2022-11-19T04:40:42.503Z,8.13
2022-11-19T04:41:44.809Z,6.70
2022-11-19T04:42:46.965Z,7.00
2022-11-19T04:43:49.570Z,7.10
2022-11-19T04:44:51.761Z,6.75
2022-11-19T04:45:53.911Z,7.35
2022-11-19T04:46:56.239Z,7.28
2022-11-19T04:47:58.393Z,7.40
2022-11-19T04:49:00.947Z,7.15
2022-11-19T04:50:03.221Z,7.30
2022-11-19T04:51:05.596Z,7.38
2022-11-19T04:52:07.787Z,7.50
2022-11-19T04:53:10.147Z,6.82
2022-11-19T04:54:13.321Z,6.53
2022-11-19T04:55:15.616Z,7.68
2022-11-19T04:56:17.747Z,7.18
2022-11-19T04:57:20.142Z,7.28
2022-11-19T04:58:22.470Z,6.53
2022-11-19T04:59:24.808Z,7.72
2022-11-19T05:00:26.994Z,7.47
2022-11-19T05:01:29.221Z,7.20
2022-11-19T05:02:31.564Z,7.22
2022-11-19T05:03:34.022Z,7.80
2022-11-19T05:04:36.873Z,8.10
2022-11-19T05:05:39.026Z,7.38
2022-11-19T05:06:41.386Z,7.82
2022-11-19T05:07:43.528Z,7.93
2022-11-19T05:08:45.976Z,7.35
2022-11-19T05:09:48.095Z,7.35
2022-11-19T05:10:50.285Z,7.40
2022-11-19T05:11:52.427Z,7.55
2022-11-19T05:12:54.754Z,7.85
2022-11-19T05:13:56.868Z,7.43
2022-11-19T05:14:59.174Z,7.50
2022-11-19T05:16:01.324Z,8.05
2022-11-19T05:17:03.463Z,8.55
2022-11-19T05:18:06.211Z,8.38
2022-11-19T05:19:08.549Z,8.82
2022-11-19T05:20:11.207Z,7.43
2022-11-19T05:21:13.389Z,7.63
2022-11-19T05:22:15.749Z,7.25
2022-11-19T05:23:18.092Z,7.80
2022-11-19T05:24:20.483Z,8.30
2022-11-19T05:25:22.703Z,7.82
2022-11-19T05:26:24.877Z,8.20
2022-11-19T05:27:27.044Z,7.97
2022-11-19T05:28:38.381Z,8.57
2022-11-19T05:29:41.182Z,7.90
2022-11-19T05:30:43.400Z,7.70
2022-11-19T05:31:45.489Z,8.68
2022-11-19T05:32:47.999Z,7.57
2022-11-19T05:33:50.112Z,7.80
2022-11-19T05:34:52.885Z,8.88
2022-11-19T05:35:55.065Z,7.60
2022-11-19T05:36:57.180Z,8.50
2022-11-19T05:37:59.337Z,7.38
2022-11-19T05:39:01.693Z,7.93
2022-11-19T05:40:04.706Z,7.55
2022-11-19T05:41:06.878Z,7.65
2022-11-19T05:42:09.028Z,9.15
2022-11-19T05:43:11.915Z,8.73
2022-11-19T05:44:14.299Z,8.52
2022-11-19T05:45:16.693Z,9.60
2022-11-19T05:46:18.881Z,8.65
2022-11-19T05:47:21.249Z,8.00
2022-11-19T05:48:23.415Z,8.77
2022-11-19T05:49:25.875Z,8.63
2022-11-19T05:50:28.430Z,9.57
2022-11-19T05:51:32.555Z,7.85
2022-11-19T05:52:35.125Z,9.05
2022-11-19T05:53:37.331Z,8.05
2022-11-19T05:54:39.665Z,8.13
2022-11-19T05:55:42.118Z,7.35
2022-11-19T05:56:44.527Z,7.85
2022-11-19T05:57:47.013Z,7.40
2022-11-19T05:58:49.134Z,7.85
2022-11-19T05:59:51.832Z,6.85
2022-11-19T06:00:56.019Z,7.10
2022-11-19T06:01:58.217Z,7.57
2022-11-19T06:03:00.665Z,7.90
2022-11-19T06:04:02.843Z,7.60
2022-11-19T06:05:05.900Z,8.75
2022-11-19T06:06:08.350Z,8.68
2022-11-19T06:07:10.688Z,7.78
2022-11-19T06:08:12.877Z,8.18
2022-11-19T06:09:15.069Z,8.02
2022-11-19T06:10:17.773Z,8.98
2022-11-19T06:11:38.550Z,8.43
2022-11-19T06:12:45.780Z,8.23
2022-11-19T06:13:48.620Z,7.82
2022-11-19T06:14:50.949Z,8.38
2022-11-19T06:15:53.299Z,8.07
2022-11-19T06:16:59.788Z,8.48
2022-11-19T06:18:02.204Z,9.50
2022-11-19T06:19:04.546Z,8.10
2022-11-19T06:20:11.430Z,7.63
2022-11-19T06:21:13.601Z,8.57
2022-11-19T06:22:15.933Z,8.50
2022-11-19T06:23:18.167Z,8.27
2022-11-19T06:24:21.268Z,8.18
2022-11-19T06:25:24.159Z,8.30
2022-11-19T06:26:28.254Z,7.57
2022-11-19T06:27:30.513Z,8.02
2022-11-19T06:28:32.686Z,7.63
2022-11-19T06:29:35.035Z,8.00
2022-11-19T06:30:37.669Z,8.02
2022-11-19T06:31:40.013Z,8.70
2022-11-19T06:32:43.160Z,8.30
2022-11-19T06:33:45.337Z,7.93
2022-11-19T06:34:47.716Z,7.90
2022-11-19T06:35:50.467Z,8.43
2022-11-19T06:36:52.661Z,9.50
2022-11-19T06:37:54.849Z,7.88
2022-11-19T06:38:57.239Z,8.18
2022-11-19T06:39:59.452Z,8.13
2022-11-19T06:41:01.818Z,8.52
2022-11-19T06:42:22.463Z,8.23
2022-11-19T06:43:24.612Z,8.38
2022-11-19T06:44:26.940Z,7.65
2022-11-19T06:45:29.034Z,7.70
2022-11-19T06:46:31.806Z,8.32
2022-11-19T06:47:34.123Z,9.02
2022-11-19T06:48:36.573Z,8.20
2022-11-19T06:49:39.034Z,8.70
2022-11-19T06:50:41.232Z,8.75
2022-11-19T06:51:43.743Z,8.35
2022-11-19T06:52:45.949Z,8.77
2022-11-19T06:53:48.310Z,8.77
2022-11-19T06:54:50.577Z,9.40
2022-11-19T06:55:57.169Z,7.93
2022-11-19T06:56:59.798Z,8.38
2022-11-19T06:58:05.781Z,9.63
2022-11-19T06:59:08.101Z,8.80
2022-11-19T07:00:11.433Z,9.13
2022-11-19T07:01:15.157Z,8.68
2022-11-19T07:02:21.251Z,8.52
2022-11-19T07:03:24.001Z,8.80
2022-11-19T07:04:26.164Z,8.25
2022-11-19T07:05:28.319Z,9.05
2022-11-19T07:06:30.686Z,8.27
2022-11-19T07:07:34.994Z,7.20
2022-11-19T07:08:37.757Z,7.50
2022-11-19T07:09:40.099Z,8.60
2022-11-19T07:10:43.257Z,8.23
2022-11-19T07:11:46.751Z,9.27
2022-11-19T07:12:48.922Z,8.85
2022-11-19T07:13:58.188Z,9.90
2022-11-19T07:15:04.317Z,9.32
2022-11-19T07:16:06.888Z,8.80
2022-11-19T07:17:09.415Z,8.52
2022-11-19T07:18:11.620Z,8.18
2022-11-19T07:19:13.967Z,7.93
2022-11-19T07:20:16.726Z,8.18
2022-11-19T07:21:19.188Z,7.20
2022-11-19T07:22:21.736Z,8.35
2022-11-19T07:23:23.895Z,8.15
2022-11-19T07:24:26.765Z,7.78
2022-11-19T07:25:29.140Z,7.57
2022-11-19T07:26:33.160Z,8.18
2022-11-19T07:27:35.686Z,8.75
2022-11-19T07:28:37.905Z,8.45
2022-11-19T07:29:40.075Z,8.20
2022-11-19T07:30:42.233Z,8.60
2022-11-19T07:31:46.877Z,8.70
2022-11-19T07:32:49.271Z,8.25
2022-11-19T07:33:51.513Z,8.98
2022-11-19T07:34:53.713Z,8.63
2022-11-19T07:35:56.040Z,8.80
2022-11-19T07:36:58.276Z,9.15
2022-11-19T07:38:00.615Z,8.95
2022-11-19T07:39:04.255Z,8.30
2022-11-19T07:40:06.965Z,8.32
2022-11-19T07:41:28.076Z,8.57
2022-11-19T07:43:50.993Z,8.75
2022-11-19T07:44:54.918Z,8.60
2022-11-19T07:45:57.402Z,8.52
2022-11-19T07:46:59.994Z,9.95
2022-11-19T07:48:02.180Z,7.47
2022-11-19T07:49:04.351Z,7.32
2022-11-19T07:50:06.816Z,7.88
2022-11-19T07:51:09.091Z,8.23
2022-11-19T07:52:11.428Z,7.78
2022-11-19T07:53:13.779Z,8.30
2022-11-19T07:54:16.184Z,8.38
2022-11-19T07:55:18.473Z,8.57
2022-11-19T07:56:20.785Z,7.75
2022-11-19T07:57:29.672Z,7.72
2022-11-19T07:58:32.773Z,8.43
2022-11-19T07:59:34.990Z,9.07
2022-11-19T08:00:37.413Z,8.07
2022-11-19T08:01:39.665Z,8.55
2022-11-19T08:02:41.893Z,7.30
2022-11-19T08:03:47.840Z,7.47
2022-11-19T08:04:52.859Z,8.00
2022-11-19T08:05:55.021Z,8.15
2022-11-19T08:06:57.299Z,7.50
2022-11-19T08:08:01.854Z,8.35
2022-11-19T08:09:05.304Z,8.07
2022-11-19T08:10:09.128Z,7.43
2022-11-19T08:11:13.374Z,8.05
2022-11-19T08:12:15.577Z,7.60
2022-11-19T08:13:17.937Z,7.30
2022-11-19T08:14:20.232Z,7.65
2022-11-19T08:15:24.751Z,7.95
2022-11-19T08:16:50.626Z,7.55
2022-11-19T08:18:11.563Z,7.20
2022-11-19T08:20:17.655Z,7.43
2022-11-19T08:21:19.833Z,6.85
2022-11-19T08:22:22.217Z,6.57
2022-11-19T08:23:24.868Z,7.35
2022-11-19T08:24:27.050Z,7.40
2022-11-19T08:25:29.405Z,7.20
2022-11-19T08:26:31.783Z,7.72
2022-11-19T08:27:34.741Z,7.18
2022-11-19T08:28:37.270Z,7.82
2022-11-19T08:29:39.519Z,7.38
2022-11-19T08:30:42.116Z,6.88
2022-11-19T08:31:46.936Z,7.50
2022-11-19T08:32:49.133Z,7.20
2022-11-19T08:33:51.481Z,8.80
2022-11-19T08:34:53.659Z,6.78
2022-11-19T08:35:56.405Z,8.15
2022-11-19T08:36:58.586Z,8.25
2022-11-19T08:38:01.031Z,8.77
2022-11-19T08:39:04.233Z,8.05
2022-11-19T08:40:07.083Z,8.43
2022-11-19T08:41:28.187Z,7.72
2022-11-19T08:43:51.364Z,6.60
2022-11-19T08:44:54.955Z,7.88
2022-11-19T08:45:57.195Z,8.20
2022-11-19T08:46:59.695Z,7.82
2022-11-19T08:48:05.580Z,8.10
2022-11-19T08:49:08.873Z,8.85
2022-11-19T08:50:11.255Z,9.00
2022-11-19T08:51:14.934Z,9.73
2022-11-19T08:52:17.725Z,10.07
2022-11-19T08:53:19.883Z,9.88
2022-11-19T08:54:22.990Z,10.80
2022-11-19T08:55:26.616Z,10.15
2022-11-19T08:56:29.348Z,9.23
2022-11-19T08:57:31.532Z,9.55
2022-11-19T08:58:34.054Z,10.18
2022-11-19T08:59:36.276Z,9.88
2022-11-19T09:00:38.542Z,9.48
2022-11-19T09:01:40.787Z,10.07
2022-11-19T09:02:43.156Z,8.82
2022-11-19T09:03:45.725Z,8.93
2022-11-19T09:04:48.030Z,8.45
2022-11-19T09:05:50.236Z,9.88
2022-11-19T09:06:52.449Z,8.63
2022-11-19T09:07:55.525Z,8.80
2022-11-19T09:08:58.412Z,9.68
2022-11-19T09:10:00.827Z,8.80
2022-11-19T09:11:07.840Z,8.50
2022-11-19T09:12:10.049Z,8.95
2022-11-19T09:13:12.201Z,8.38
2022-11-19T09:14:14.612Z,8.70
2022-11-19T09:15:17.008Z,8.35
2022-11-19T09:16:19.241Z,8.95
2022-11-19T09:17:21.531Z,7.63
2022-11-19T09:18:23.754Z,8.45
2022-11-19T09:19:26.066Z,9.07
2022-11-19T09:20:28.510Z,8.45
2022-11-19T09:21:30.689Z,9.13
2022-11-19T09:22:33.395Z,9.55
2022-11-19T09:23:36.063Z,9.30
2022-11-19T09:24:38.266Z,10.15
2022-11-19T09:25:40.776Z,8.70
2022-11-19T09:26:43.015Z,8.63
2022-11-19T09:27:45.286Z,8.75
2022-11-19T09:28:48.041Z,9.35
2022-11-19T09:29:50.361Z,8.52
2022-11-19T09:31:14.762Z,8.25
2022-11-19T09:32:22.440Z,8.13
2022-11-19T09:33:29.821Z,8.15
2022-11-19T09:34:32.061Z,7.88
2022-11-19T09:35:34.273Z,7.57
2022-11-19T09:36:36.475Z,8.10
2022-11-19T09:37:38.652Z,7.82
2022-11-19T09:38:41.306Z,7.38
2022-11-19T09:39:43.472Z,7.63
2022-11-19T09:40:52.350Z,7.38
2022-11-19T09:42:29.058Z,7.70
2022-11-19T09:43:53.236Z,7.15
2022-11-19T09:45:11.146Z,7.68
2022-11-19T09:46:54.912Z,8.02
2022-11-19T09:48:31.084Z,7.88
2022-11-19T09:49:44.146Z,7.32
2022-11-19T09:50:59.508Z,7.38
2022-11-19T09:52:07.484Z,7.53
2022-11-19T09:53:15.704Z,8.07
2022-11-19T09:54:21.809Z,8.77
2022-11-19T09:55:32.511Z,7.90
2022-11-19T09:56:36.834Z,8.60
2022-11-19T09:57:51.065Z,7.60
2022-11-19T09:58:55.472Z,7.78
2022-11-19T10:00:00.627Z,8.10
2022-11-19T10:01:03.128Z,8.05
2022-11-19T10:02:23.240Z,7.68
2022-11-19T10:03:32.858Z,7.72
2022-11-19T10:04:36.788Z,7.90
2022-11-19T10:06:00.619Z,10.75
2022-11-19T10:07:22.319Z,8.43
2022-11-19T10:08:46.341Z,7.68
2022-11-19T10:09:56.184Z,7.90
2022-11-19T10:11:07.312Z,7.70
2022-11-19T10:12:12.364Z,7.68
2022-11-19T10:13:30.060Z,7.10
2022-11-19T10:14:54.897Z,8.25
2022-11-19T10:16:04.674Z,8.02
2022-11-19T10:17:28.828Z,7.37
2022-11-19T10:19:01.854Z,7.38
2022-11-19T10:20:36.009Z,6.93
2022-11-19T10:22:07.001Z,6.40
2022-11-19T10:23:25.432Z,8.00
2022-11-19T10:24:58.040Z,7.35
2022-11-19T10:26:05.578Z,6.80
2022-11-19T10:27:23.202Z,6.57
2022-11-19T10:28:31.529Z,6.95
2022-11-19T10:29:38.953Z,6.57
2022-11-19T10:30:47.983Z,7.22
2022-11-19T10:31:51.568Z,5.82
2022-11-19T10:32:59.991Z,6.18
2022-11-19T10:34:15.397Z,6.63
2022-11-19T10:35:22.879Z,6.45
2022-11-19T10:36:43.198Z,6.25
2022-11-19T10:38:06.978Z,6.20
2022-11-19T10:39:32.427Z,6.38
2022-11-19T10:40:51.181Z,6.22
2022-11-19T10:42:00.643Z,6.28
2022-11-19T10:43:23.581Z,6.13
2022-11-19T10:44:38.275Z,6.28
2022-11-19T10:45:40.518Z,5.95
2022-11-19T10:46:43.730Z,6.13
2022-11-19T10:47:54.738Z,5.78
2022-11-19T10:50:11.163Z,5.85
2022-11-19T10:51:25.188Z,5.97
2022-11-19T10:52:32.013Z,5.75
2022-11-19T10:53:38.127Z,5.57
2022-11-19T10:54:41.178Z,5.65
2022-11-19T10:55:52.898Z,5.68
2022-11-19T10:57:00.741Z,6.07
2022-11-19T10:58:13.686Z,5.68
2022-11-19T10:59:23.816Z,5.70
2022-11-19T11:00:27.367Z,6.18
2022-11-19T11:01:40.137Z,5.75
2022-11-19T11:02:58.839Z,5.85
2022-11-19T11:05:20.120Z,6.32
2022-11-19T11:06:22.561Z,6.13
2022-11-19T11:07:49.834Z,5.40
2022-11-19T11:08:55.416Z,5.40
2022-11-19T11:09:57.546Z,5.60
2022-11-19T11:11:00.880Z,9.07
2022-11-19T11:12:29.145Z,5.63
2022-11-19T11:13:54.963Z,5.55
2022-11-19T11:15:13.029Z,4.53
2022-11-19T11:16:23.288Z,4.97
2022-11-19T11:17:29.185Z,3.88
2022-11-19T11:18:34.217Z,4.72
2022-11-19T11:19:36.550Z,5.40
2022-11-19T11:20:45.370Z,5.53
2022-11-19T11:21:53.346Z,5.00
2022-11-19T11:23:10.565Z,5.93
2022-11-19T11:24:14.045Z,5.93
2022-11-19T11:25:26.983Z,5.55
2022-11-19T11:26:30.901Z,5.93
2022-11-19T11:27:35.244Z,5.35
2022-11-19T11:28:54.548Z,5.63
2022-11-19T11:30:12.058Z,5.07
2022-11-19T11:31:29.044Z,5.70
2022-11-19T11:32:32.185Z,5.47
2022-11-19T11:33:40.916Z,6.18
2022-11-19T11:34:44.028Z,5.93
2022-11-19T11:35:46.420Z,5.03
2022-11-19T11:36:48.569Z,7.43
2022-11-19T11:37:51.233Z,6.13
2022-11-19T11:38:56.448Z,5.78
2022-11-19T11:40:01.366Z,6.05
2022-11-19T11:42:29.718Z,5.90
2022-11-19T11:43:33.854Z,5.10
2022-11-19T11:44:39.082Z,5.60
2022-11-19T11:45:41.281Z,5.00
2022-11-19T11:46:50.906Z,4.88
2022-11-19T11:47:53.350Z,4.78
2022-11-19T11:49:01.013Z,5.15
2022-11-19T11:50:17.345Z,5.00
2022-11-19T11:51:39.454Z,5.38
2022-11-19T11:52:48.163Z,4.93
2022-11-19T11:54:15.092Z,5.15
2022-11-19T11:55:23.471Z,4.90
2022-11-19T11:56:25.603Z,4.95
2022-11-19T11:57:33.797Z,5.38
2022-11-19T11:58:35.953Z,5.03
2022-11-19T11:59:38.145Z,5.35
2022-11-19T12:00:46.537Z,5.22
2022-11-19T12:01:57.393Z,6.07
2022-11-19T12:03:01.083Z,4.85
2022-11-19T12:04:03.938Z,4.75
2022-11-19T12:05:17.347Z,5.07
2022-11-19T12:06:22.505Z,4.85
2022-11-19T12:07:39.670Z,5.10
2022-11-19T12:08:57.335Z,5.05
2022-11-19T12:10:10.068Z,5.20
2022-11-19T12:11:15.151Z,5.28
2022-11-19T12:12:45.144Z,4.55
2022-11-19T12:14:11.298Z,5.00
2022-11-19T12:15:25.066Z,5.15
2022-11-19T12:16:38.903Z,4.85
2022-11-19T12:18:10.835Z,5.00
2022-11-19T12:19:22.095Z,5.20
2022-11-19T12:20:50.944Z,4.97
2022-11-19T12:22:25.109Z,5.13
2022-11-19T12:23:38.614Z,4.65
2022-11-19T12:24:51.560Z,4.90
2022-11-19T12:26:12.671Z,5.03
2022-11-19T12:28:37.899Z,5.32
2022-11-19T12:30:19.019Z,4.93
2022-11-19T12:31:47.641Z,5.13
2022-11-19T12:32:59.929Z,4.65
2022-11-19T12:34:19.188Z,4.60
2022-11-19T12:35:37.401Z,4.80
2022-11-19T12:37:12.838Z,4.43
2022-11-19T12:38:47.357Z,4.55
2022-11-19T12:40:19.386Z,4.88
2022-11-19T12:41:27.695Z,5.38
2022-11-19T12:42:52.733Z,5.85
2022-11-19T12:44:03.857Z,8.55
2022-11-19T12:45:15.677Z,5.90
2022-11-19T12:46:21.136Z,5.28
2022-11-19T12:47:43.534Z,6.97
2022-11-19T12:49:00.950Z,6.25
2022-11-19T12:50:22.698Z,4.65
2022-11-19T12:51:43.361Z,3.80
2022-11-19T12:52:57.509Z,4.53
2022-11-19T12:53:59.632Z,4.07
2022-11-19T12:55:04.780Z,4.13
2022-11-19T12:56:31.583Z,3.47
2022-11-19T12:57:59.572Z,3.47
2022-11-19T12:59:35.684Z,3.70
2022-11-19T13:00:46.881Z,3.45
2022-11-19T13:01:53.936Z,4.03
2022-11-19T13:03:34.818Z,6.95
2022-11-19T13:04:46.115Z,4.78
2022-11-19T13:05:57.510Z,4.50
2022-11-19T13:07:06.034Z,4.32
2022-11-19T13:08:18.251Z,4.35
2022-11-19T13:09:44.079Z,3.80
2022-11-19T13:10:55.442Z,4.13
2022-11-19T13:12:06.873Z,3.72
2022-11-19T13:13:14.087Z,4.00
2022-11-19T13:14:28.296Z,4.07
2022-11-19T13:15:36.781Z,4.05
2022-11-19T13:16:40.983Z,4.25
2022-11-19T13:17:47.338Z,4.47
2022-11-19T13:18:54.055Z,4.55
2022-11-19T13:20:01.073Z,4.18
2022-11-19T13:21:07.985Z,3.90
2022-11-19T13:22:19.577Z,4.85
2022-11-19T13:23:30.649Z,4.90
2022-11-19T13:25:02.350Z,4.10
2022-11-19T13:26:30.848Z,4.15
2022-11-19T13:27:33.187Z,4.70
2022-11-19T13:28:42.018Z,4.90
2022-11-19T13:29:56.040Z,4.50
2022-11-19T13:31:07.481Z,4.40
2022-11-19T13:32:47.711Z,4.53
2022-11-19T13:33:56.506Z,4.75
2022-11-19T13:35:22.155Z,4.38
2022-11-19T13:36:34.688Z,4.50
2022-11-19T13:38:02.505Z,4.50
2022-11-19T13:39:26.554Z,4.15
2022-11-19T13:40:42.765Z,4.60
2022-11-19T13:42:08.676Z,4.25
2022-11-19T13:43:37.969Z,4.45
2022-11-19T13:44:41.643Z,4.05
2022-11-19T13:45:50.943Z,4.50
2022-11-19T13:46:59.389Z,4.28
2022-11-19T13:48:17.922Z,4.28
2022-11-19T13:49:23.409Z,4.50
2022-11-19T13:50:34.284Z,4.50
2022-11-19T13:51:44.113Z,4.65
2022-11-19T13:52:48.751Z,4.35
2022-11-19T13:53:51.067Z,4.43
2022-11-19T13:54:54.588Z,4.15
2022-11-19T13:55:58.286Z,4.07
2022-11-19T13:57:04.779Z,4.60
2022-11-19T13:58:21.787Z,3.80
2022-11-19T13:59:48.684Z,4.18
2022-11-19T14:01:11.387Z,3.72
2022-11-19T14:02:38.563Z,3.90
2022-11-19T14:04:04.931Z,3.97
2022-11-19T14:05:31.044Z,3.80
2022-11-19T14:06:47.949Z,4.13
2022-11-19T14:08:13.303Z,4.00
2022-11-19T14:09:41.728Z,4.28
2022-11-19T14:11:29.652Z,4.25
2022-11-19T14:13:13.764Z,3.70
2022-11-19T14:15:09.776Z,3.70
2022-11-19T14:16:42.091Z,3.22
2022-11-19T14:18:13.471Z,4.10
2022-11-19T14:21:00.932Z,3.50
2022-11-19T14:23:15.826Z,3.33
2022-11-19T14:24:42.993Z,3.60
2022-11-19T14:26:08.560Z,3.33
2022-11-19T14:27:27.347Z,3.05
2022-11-19T14:28:54.715Z,4.10
2022-11-19T14:30:09.592Z,3.30
2022-11-19T14:31:12.899Z,3.00
2022-11-19T14:32:15.213Z,3.17
2022-11-19T14:33:57.289Z,2.92
2022-11-19T14:35:02.635Z,3.05
2022-11-19T14:36:11.849Z,3.35
2022-11-19T14:37:27.426Z,2.85
2022-11-19T14:38:36.417Z,2.63
2022-11-19T14:39:45.396Z,2.78
2022-11-19T14:41:03.811Z,3.00
2022-11-19T14:42:15.231Z,3.55
2022-11-19T14:43:36.316Z,2.47
2022-11-19T14:44:38.669Z,2.65
2022-11-19T14:46:10.254Z,2.70
2022-11-19T14:47:18.134Z,2.53
2022-11-19T14:48:20.694Z,3.20
2022-11-19T14:49:25.067Z,2.72
2022-11-19T14:50:29.275Z,3.10
2022-11-19T14:51:38.935Z,2.90
2022-11-19T14:53:18.719Z,3.00
2022-11-19T14:54:41.267Z,2.97
2022-11-19T14:55:54.043Z,3.17
2022-11-19T14:57:14.677Z,3.22
2022-11-19T14:58:23.256Z,3.00
2022-11-19T14:59:28.614Z,2.90
2022-11-19T15:00:37.494Z,2.90
2022-11-19T15:01:58.423Z,3.38
2022-11-19T15:04:10.983Z,3.90
2022-11-19T15:05:13.140Z,3.67
2022-11-19T15:06:19.002Z,3.17
2022-11-19T15:07:33.029Z,3.63
2022-11-19T15:08:51.456Z,3.40
2022-11-19T15:10:28.450Z,3.53
2022-11-19T15:11:55.683Z,2.85
2022-11-19T15:13:19.781Z,3.35
2022-11-19T15:14:27.966Z,3.35
2022-11-19T15:15:43.296Z,4.00
2022-11-19T15:16:48.745Z,3.42
2022-11-19T15:18:01.853Z,3.10
2022-11-19T15:19:45.215Z,3.53
2022-11-19T15:20:50.415Z,2.90
2022-11-19T15:22:17.744Z,3.08
2022-11-19T15:23:28.219Z,4.15
2022-11-19T15:24:45.657Z,3.20
2022-11-19T15:25:57.770Z,4.20
2022-11-19T15:27:19.350Z,2.92
2022-11-19T15:28:46.599Z,3.38
2022-11-19T15:30:06.808Z,3.15